Time;durP1;ratioP1;P1;durP2;ratioP2;P2;SDS_P1;SDS_P2;PMS_P1;PMS_P2;Temp;Humidity;BMP_temperature;BMP_pressure;BME280_temperature;BME280_humidity;BME280_pressure;Samples;Min_cycle;Max_cycle;Signal;HPM_P1;HPM_P2
2020/12/03 00:00:24;;;;;;;59.23;21.80;;;;;;;;;;5055418;28;20223;-79
2020/12/03 00:03:30;;;;;;;63.00;23.17;;;;;;;;;;5057068;28;20627;-79
2020/12/03 00:06:39;;;;;;;63.17;22.83;;;;;;;;;;5073958;28;20209;-79
2020/12/03 00:09:45;;;;;;;70.80;24.93;;;;;;;;;;5062560;28;20673;-79
2020/12/03 00:13:08;;;;;;;63.73;23.30;;;;;;;;;;5077683;28;20739;-78
2020/12/03 00:16:13;;;;;;;67.10;21.93;;;;;;;;;;5075698;28;20213;-79
2020/12/03 00:19:19;;;;;;;62.70;22.13;;;;;;;;;;5058988;28;20252;-79
2020/12/03 00:22:24;;;;;;;60.30;22.53;;;;;;;;;;5060487;28;20613;-79
2020/12/03 00:25:30;;;;;;;61.10;22.67;;;;;;;;;;5063604;28;20333;-79
2020/12/03 00:28:36;;;;;;;62.77;21.97;;;;;;;;;;5079026;28;20249;-79
2020/12/03 00:31:43;;;;;;;61.43;22.03;;;;;;;;;;5060721;28;20655;-79
2020/12/03 00:34:47;;;;;;;57.77;21.27;;;;;;;;;;5068311;28;20694;-79
2020/12/03 00:37:52;;;;;;;65.97;22.70;;;;;;;;;;5072458;28;20218;-79
2020/12/03 00:41:00;;;;;;;61.70;22.77;;;;;;;;;;5058057;28;20206;-79
2020/12/03 00:44:05;;;;;;;62.73;22.37;;;;;;;;;;5079376;28;20365;-79
2020/12/03 00:47:10;;;;;;;58.90;21.60;;;;;;;;;;5069378;28;20214;-79
2020/12/03 00:50:17;;;;;;;62.50;23.33;;;;;;;;;;5091840;28;20230;-79
2020/12/03 00:53:22;;;;;;;64.53;22.87;;;;;;;;;;5069467;28;20290;-79
2020/12/03 00:56:28;;;;;;;63.23;22.77;;;;;;;;;;5086459;28;20210;-78
2020/12/03 00:59:37;;;;;;;69.40;24.73;;;;;;;;;;5090287;28;20206;-78
2020/12/03 01:02:42;;;;;;;63.27;23.70;;;;;;;;;;5080539;28;20227;-78
2020/12/03 01:05:47;;;;;;;62.37;22.00;;;;;;;;;;5083441;28;20241;-78
2020/12/03 01:08:52;;;;;;;63.00;21.73;;;;;;;;;;5075188;28;20253;-79
2020/12/03 01:11:58;;;;;;;64.53;23.87;;;;;;;;;;5076212;28;20236;-79
2020/12/03 01:15:04;;;;;;;67.13;22.60;;;;;;;;;;5068444;28;20210;-79
2020/12/03 01:18:09;;;;;;;58.93;22.47;;;;;;;;;;5066827;28;20277;-79
2020/12/03 01:21:17;;;;;;;62.43;22.90;;;;;;;;;;5065747;28;20203;-79
2020/12/03 01:24:22;;;;;;;62.27;22.43;;;;;;;;;;5065582;28;20206;-79
2020/12/03 01:27:28;;;;;;;63.97;22.93;;;;;;;;;;5073102;28;20256;-79
2020/12/03 01:30:33;;;;;;;64.90;23.53;;;;;;;;;;5055242;28;20231;-79
2020/12/03 01:33:37;;;;;;;67.40;23.07;;;;;;;;;;5054451;28;20251;-79
2020/12/03 01:36:42;;;;;;;59.17;23.47;;;;;;;;;;5062340;28;20254;-79
2020/12/03 01:39:47;;;;;;;64.87;23.50;;;;;;;;;;5074507;28;20210;-79
2020/12/03 01:42:53;;;;;;;70.63;24.77;;;;;;;;;;5081678;28;20234;-79
2020/12/03 01:45:59;;;;;;;66.10;24.63;;;;;;;;;;5083270;28;20245;-79
2020/12/03 01:49:05;;;;;;;68.43;24.07;;;;;;;;;;5069006;28;20206;-79
2020/12/03 01:52:10;;;;;;;68.23;25.00;;;;;;;;;;5074248;28;20195;-79
2020/12/03 01:55:15;;;;;;;68.43;24.53;;;;;;;;;;5058203;28;20229;-79
2020/12/03 01:58:30;;;;;;;70.40;24.67;;;;;;;;;;5051645;28;20210;-79
2020/12/03 02:01:38;;;;;;;72.00;25.03;;;;;;;;;;5064475;28;20202;-79
2020/12/03 02:04:42;;;;;;;71.63;25.07;;;;;;;;;;5065235;28;20210;-79
2020/12/03 02:07:48;;;;;;;80.80;26.27;;;;;;;;;;5061030;28;20784;-79
2020/12/03 02:10:52;;;;;;;75.93;25.57;;;;;;;;;;5057289;28;20254;-79
2020/12/03 02:14:00;;;;;;;77.33;27.17;;;;;;;;;;5071356;28;20358;-79
2020/12/03 02:17:04;;;;;;;80.03;28.27;;;;;;;;;;5057912;28;20689;-79
2020/12/03 02:20:12;;;;;;;84.17;27.77;;;;;;;;;;5075053;28;20232;-79
2020/12/03 02:23:17;;;;;;;81.17;27.87;;;;;;;;;;5055734;28;20234;-80
2020/12/03 02:26:22;;;;;;;76.73;27.30;;;;;;;;;;5072867;28;20202;-79
2020/12/03 02:29:28;;;;;;;75.93;27.73;;;;;;;;;;5065735;28;20226;-79
2020/12/03 02:32:32;;;;;;;79.27;28.13;;;;;;;;;;5067929;28;20222;-78
2020/12/03 02:35:38;;;;;;;80.10;27.93;;;;;;;;;;5066026;28;20257;-79
2020/12/03 02:38:43;;;;;;;77.13;26.53;;;;;;;;;;5059652;28;20218;-79
2020/12/03 02:41:48;;;;;;;79.03;28.03;;;;;;;;;;5061023;28;20253;-79
2020/12/03 02:44:53;;;;;;;82.87;30.03;;;;;;;;;;5056114;28;20211;-79
2020/12/03 02:47:57;;;;;;;79.97;28.30;;;;;;;;;;5063993;28;20214;-79
2020/12/03 02:51:03;;;;;;;83.40;28.47;;;;;;;;;;5057864;28;20222;-79
2020/12/03 02:54:08;;;;;;;69.93;27.03;;;;;;;;;;5064392;28;20242;-79
2020/12/03 02:57:13;;;;;;;85.40;29.33;;;;;;;;;;5058203;28;20214;-79
2020/12/03 03:00:17;;;;;;;80.97;28.20;;;;;;;;;;5072968;28;20206;-79
2020/12/03 03:03:22;;;;;;;79.73;28.10;;;;;;;;;;5060105;28;20231;-79
2020/12/03 03:06:28;;;;;;;78.43;28.17;;;;;;;;;;5063683;28;20732;-79
2020/12/03 03:09:33;;;;;;;79.33;29.80;;;;;;;;;;5049786;28;20271;-79
2020/12/03 03:12:37;;;;;;;80.03;28.20;;;;;;;;;;5066794;28;20227;-79
2020/12/03 03:15:42;;;;;;;85.50;29.30;;;;;;;;;;5069810;28;20211;-79
2020/12/03 03:18:47;;;;;;;86.57;29.20;;;;;;;;;;5067444;28;20206;-79
2020/12/03 03:21:52;;;;;;;81.00;27.67;;;;;;;;;;5063660;28;20425;-79
2020/12/03 03:24:57;;;;;;;74.80;27.03;;;;;;;;;;5058456;28;20337;-79
2020/12/03 03:28:02;;;;;;;73.67;25.53;;;;;;;;;;5074873;28;20233;-79
2020/12/03 03:31:07;;;;;;;86.37;28.10;;;;;;;;;;5070071;28;20215;-80
2020/12/03 03:34:12;;;;;;;76.73;27.87;;;;;;;;;;5066202;28;20226;-78
2020/12/03 03:37:18;;;;;;;83.27;28.17;;;;;;;;;;5064675;28;20196;-78
2020/12/03 03:40:23;;;;;;;89.57;30.53;;;;;;;;;;5079630;28;20202;-79
2020/12/03 03:43:28;;;;;;;78.87;29.00;;;;;;;;;;5079942;28;20589;-79
2020/12/03 03:46:33;;;;;;;76.63;28.23;;;;;;;;;;5072777;28;20206;-79
2020/12/03 03:49:38;;;;;;;79.43;27.97;;;;;;;;;;5084511;28;20556;-78
2020/12/03 03:52:46;;;;;;;79.03;28.80;;;;;;;;;;5083052;28;20221;-79
2020/12/03 03:55:50;;;;;;;81.80;28.77;;;;;;;;;;5065381;28;20207;-79
2020/12/03 03:58:55;;;;;;;79.70;28.63;;;;;;;;;;5074565;28;20210;-80
2020/12/03 04:02:00;;;;;;;85.63;30.43;;;;;;;;;;5073568;28;20205;-78
2020/12/03 04:05:04;;;;;;;83.83;29.00;;;;;;;;;;5081996;28;20344;-79
2020/12/03 04:08:10;;;;;;;93.80;29.97;;;;;;;;;;5067928;28;20202;-79
2020/12/03 04:11:16;;;;;;;84.43;29.07;;;;;;;;;;5069155;28;20233;-79
2020/12/03 04:14:20;;;;;;;80.83;28.77;;;;;;;;;;5063051;28;20217;-79
2020/12/03 04:17:25;;;;;;;78.70;28.23;;;;;;;;;;5066913;28;20205;-79
2020/12/03 04:20:30;;;;;;;78.97;28.23;;;;;;;;;;5068052;28;20206;-79
2020/12/03 04:23:41;;;;;;;80.60;27.77;;;;;;;;;;5061017;28;20230;-79
2020/12/03 04:26:45;;;;;;;83.63;28.37;;;;;;;;;;5065092;28;20631;-79
2020/12/03 04:29:50;;;;;;;81.83;28.47;;;;;;;;;;5062556;28;20210;-79
2020/12/03 04:32:54;;;;;;;92.77;29.53;;;;;;;;;;5064654;28;20238;-79
2020/12/03 04:35:59;;;;;;;82.90;29.37;;;;;;;;;;5065822;28;20290;-79
2020/12/03 04:39:05;;;;;;;92.33;29.27;;;;;;;;;;5064760;28;20206;-79
2020/12/03 04:42:19;;;;;;;98.80;30.30;;;;;;;;;;5074514;28;20329;-79
2020/12/03 04:45:39;;;;;;;75.80;27.23;;;;;;;;;;5068049;28;20214;-80
2020/12/03 04:48:59;;;;;;;78.73;27.43;;;;;;;;;;5075165;28;20258;-79
2020/12/03 04:52:26;;;;;;;80.17;27.20;;;;;;;;;;5073902;28;20200;-79
2020/12/03 04:55:34;;;;;;;83.90;27.57;;;;;;;;;;5059033;28;20575;-79
2020/12/03 04:58:49;;;;;;;80.13;26.80;;;;;;;;;;5068082;28;20338;-79
2020/12/03 05:02:08;;;;;;;79.37;27.60;;;;;;;;;;5060051;28;20202;-79
2020/12/03 05:05:21;;;;;;;76.60;26.07;;;;;;;;;;5062344;28;20264;-79
2020/12/03 05:08:28;;;;;;;72.93;25.43;;;;;;;;;;5056244;28;20617;-79
2020/12/03 05:11:37;;;;;;;82.43;26.43;;;;;;;;;;5059349;28;20234;-79
2020/12/03 05:14:45;;;;;;;80.33;27.10;;;;;;;;;;5068519;28;20206;-79
2020/12/03 05:18:01;;;;;;;75.07;26.60;;;;;;;;;;5063153;28;20226;-79
2020/12/03 05:21:11;;;;;;;76.73;25.67;;;;;;;;;;5069174;28;20580;-79
2020/12/03 05:24:16;;;;;;;83.70;27.50;;;;;;;;;;5077648;28;20233;-79
2020/12/03 05:27:22;;;;;;;79.80;26.27;;;;;;;;;;5069395;28;20210;-79
2020/12/03 05:30:28;;;;;;;72.90;26.07;;;;;;;;;;5076487;28;20221;-79
2020/12/03 05:33:33;;;;;;;79.70;27.30;;;;;;;;;;5089945;28;20761;-79
2020/12/03 05:36:40;;;;;;;75.70;24.93;;;;;;;;;;5068375;28;20677;-79
2020/12/03 05:39:48;;;;;;;73.67;25.67;;;;;;;;;;5079616;28;20202;-79
2020/12/03 05:42:56;;;;;;;70.93;25.60;;;;;;;;;;5056157;28;20276;-79
2020/12/03 05:46:02;;;;;;;71.63;25.67;;;;;;;;;;5059488;28;20710;-79
2020/12/03 05:49:07;;;;;;;81.67;24.60;;;;;;;;;;5066695;28;20333;-79
2020/12/03 05:52:15;;;;;;;80.70;25.90;;;;;;;;;;5055237;28;20287;-79
2020/12/03 05:55:26;;;;;;;82.10;24.80;;;;;;;;;;5070775;28;20364;-78
2020/12/03 05:58:32;;;;;;;69.30;25.00;;;;;;;;;;5062430;28;20206;-78
2020/12/03 06:01:39;;;;;;;79.80;26.53;;;;;;;;;;5063016;28;20769;-78
2020/12/03 06:04:48;;;;;;;82.07;26.70;;;;;;;;;;5063308;28;20190;-79
2020/12/03 06:08:00;;;;;;;77.20;26.27;;;;;;;;;;5062939;28;20656;-78
2020/12/03 06:11:15;;;;;;;77.27;26.60;;;;;;;;;;5074572;28;20353;-78
2020/12/03 06:14:38;;;;;;;81.37;27.80;;;;;;;;;;5068917;28;20229;-78
2020/12/03 06:17:58;;;;;;;75.30;26.77;;;;;;;;;;5080764;28;20225;-78
2020/12/03 06:21:10;;;;;;;74.97;24.93;;;;;;;;;;5063562;28;20402;-78
2020/12/03 06:24:30;;;;;;;79.00;25.30;;;;;;;;;;5070559;28;20230;-78
2020/12/03 06:27:42;;;;;;;77.87;25.60;;;;;;;;;;5078032;28;20206;-79
2020/12/03 06:30:48;;;;;;;83.57;25.87;;;;;;;;;;5060719;28;20223;-79
2020/12/03 06:33:56;;;;;;;76.53;25.90;;;;;;;;;;5077627;28;20724;-78
2020/12/03 06:37:03;;;;;;;83.03;26.73;;;;;;;;;;5073246;28;20300;-79
2020/12/03 06:40:10;;;;;;;76.13;25.00;;;;;;;;;;5071446;28;20255;-79
2020/12/03 06:43:23;;;;;;;81.27;25.90;;;;;;;;;;5054041;28;20231;-79
2020/12/03 06:46:38;;;;;;;80.90;24.90;;;;;;;;;;5061602;28;20199;-79
2020/12/03 06:49:55;;;;;;;75.77;25.43;;;;;;;;;;5059652;28;20202;-79
2020/12/03 06:53:12;;;;;;;76.77;26.40;;;;;;;;;;5057569;28;20248;-79
2020/12/03 06:56:47;;;;;;;74.03;25.90;;;;;;;;;;5069875;28;20709;-79
2020/12/03 07:00:10;;;;;;;75.23;25.87;;;;;;;;;;5066838;28;20675;-79
2020/12/03 07:03:30;;;;;;;75.53;25.27;;;;;;;;;;5053030;28;20334;-78
2020/12/03 07:06:59;;;;;;;77.57;27.00;;;;;;;;;;5059343;28;20211;-78
2020/12/03 07:10:15;;;;;;;92.33;31.93;;;;;;;;;;5058925;28;20344;-78
2020/12/03 07:13:39;;;;;;;88.23;27.63;;;;;;;;;;5068706;28;20234;-78
2020/12/03 07:16:59;;;;;;;80.30;27.67;;;;;;;;;;5069897;28;20287;-77
2020/12/03 07:20:14;;;;;;;84.43;26.27;;;;;;;;;;5075988;28;20296;-79
2020/12/03 07:23:29;;;;;;;73.27;25.57;;;;;;;;;;5065737;28;20775;-79
2020/12/03 07:26:46;;;;;;;73.10;25.53;;;;;;;;;;5073493;28;20227;-79
2020/12/03 07:29:58;;;;;;;73.83;24.10;;;;;;;;;;5077164;28;20214;-79
2020/12/03 07:33:04;;;;;;;79.07;26.40;;;;;;;;;;5069117;28;20314;-79
2020/12/03 07:36:25;;;;;;;77.90;25.67;;;;;;;;;;5062854;28;20218;-79
2020/12/03 07:39:32;;;;;;;78.10;26.00;;;;;;;;;;5066748;28;20211;-78
2020/12/03 07:42:39;;;;;;;67.53;24.53;;;;;;;;;;5074723;28;20276;-77
2020/12/03 07:45:49;;;;;;;74.37;24.40;;;;;;;;;;5066272;28;20246;-78
2020/12/03 07:48:57;;;;;;;79.70;26.40;;;;;;;;;;5052074;28;20218;-78
2020/12/03 07:52:17;;;;;;;72.37;26.23;;;;;;;;;;5059288;28;20783;-78
2020/12/03 07:55:45;;;;;;;76.97;26.63;;;;;;;;;;5045530;28;20215;-78
2020/12/03 07:58:51;;;;;;;77.20;27.07;;;;;;;;;;5057893;28;20220;-78
2020/12/03 08:02:05;;;;;;;77.27;26.03;;;;;;;;;;5063297;28;20245;-78
2020/12/03 08:05:28;;;;;;;69.77;24.57;;;;;;;;;;5069651;28;20218;-78
2020/12/03 08:08:38;;;;;;;73.40;24.47;;;;;;;;;;5060590;28;20215;-76
2020/12/03 08:11:44;;;;;;;91.87;31.30;;;;;;;;;;5052637;28;20543;-76
2020/12/03 08:14:50;;;;;;;83.13;28.90;;;;;;;;;;5066514;28;20283;-77
2020/12/03 08:17:55;;;;;;;86.93;27.07;;;;;;;;;;5050418;28;20211;-76
2020/12/03 08:21:00;;;;;;;89.23;26.17;;;;;;;;;;5051230;28;20215;-77
2020/12/03 08:24:06;;;;;;;81.30;26.83;;;;;;;;;;5065657;28;20238;-77
2020/12/03 08:27:20;;;;;;;73.87;26.37;;;;;;;;;;5062293;28;20202;-77
2020/12/03 08:30:35;;;;;;;81.50;25.77;;;;;;;;;;5055509;28;22106;-77
2020/12/03 08:33:41;;;;;;;77.03;26.63;;;;;;;;;;5073850;28;20226;-77
2020/12/03 08:36:46;;;;;;;82.10;27.47;;;;;;;;;;5058286;28;20294;-78
2020/12/03 08:39:52;;;;;;;78.97;26.97;;;;;;;;;;5073409;28;20224;-78
2020/12/03 08:42:57;;;;;;;85.40;27.13;;;;;;;;;;5071021;28;20246;-77
2020/12/03 08:46:06;;;;;;;81.43;27.53;;;;;;;;;;5078058;28;20226;-76
2020/12/03 08:49:19;;;;;;;80.63;26.60;;;;;;;;;;5063548;28;20685;-77
2020/12/03 08:52:25;;;;;;;80.60;26.67;;;;;;;;;;5062409;28;20234;-76
2020/12/03 08:55:29;;;;;;;76.57;25.23;;;;;;;;;;5073568;28;20202;-76
2020/12/03 08:58:34;;;;;;;78.43;25.57;;;;;;;;;;5055845;28;20210;-76
2020/12/03 09:01:41;;;;;;;80.30;26.60;;;;;;;;;;5054163;28;20279;-77
2020/12/03 09:04:49;;;;;;;73.57;25.67;;;;;;;;;;5065379;28;20244;-76
2020/12/03 09:07:57;;;;;;;78.60;25.80;;;;;;;;;;5061597;28;20210;-76
2020/12/03 09:11:02;;;;;;;79.33;26.37;;;;;;;;;;5061188;28;20266;-77
2020/12/03 09:14:07;;;;;;;77.63;26.60;;;;;;;;;;5064336;28;20384;-77
2020/12/03 09:17:14;;;;;;;80.97;26.33;;;;;;;;;;5053853;28;20219;-77
2020/12/03 09:20:19;;;;;;;76.87;26.90;;;;;;;;;;5053692;28;20291;-76
2020/12/03 09:23:26;;;;;;;81.67;28.50;;;;;;;;;;5053242;28;20302;-76
2020/12/03 09:26:32;;;;;;;78.33;27.83;;;;;;;;;;5055045;28;20261;-77
2020/12/03 09:29:36;;;;;;;85.80;28.43;;;;;;;;;;5052736;28;20261;-77
2020/12/03 09:32:41;;;;;;;84.03;27.17;;;;;;;;;;5053025;28;20288;-76
2020/12/03 09:35:48;;;;;;;80.00;28.47;;;;;;;;;;5040205;28;20253;-77
2020/12/03 09:38:54;;;;;;;83.23;29.20;;;;;;;;;;5050162;28;20210;-77
2020/12/03 09:41:59;;;;;;;90.07;31.53;;;;;;;;;;5053385;28;20222;-77
2020/12/03 09:45:10;;;;;;;82.13;26.80;;;;;;;;;;5049231;28;20206;-77
2020/12/03 09:48:18;;;;;;;81.17;26.80;;;;;;;;;;5052396;28;20341;-76
2020/12/03 09:51:24;;;;;;;84.20;27.27;;;;;;;;;;5049893;28;20228;-77
2020/12/03 09:54:29;;;;;;;78.17;26.30;;;;;;;;;;5052517;28;20727;-77
2020/12/03 09:57:34;;;;;;;75.40;25.10;;;;;;;;;;5048811;28;20218;-76
2020/12/03 10:00:40;;;;;;;78.13;28.20;;;;;;;;;;5053074;28;20984;-77
2020/12/03 10:04:18;;;;;;;76.47;26.03;;;;;;;;;;5053018;28;20772;-77
2020/12/03 10:07:39;;;;;;;84.80;25.17;;;;;;;;;;5006523;28;20240;-77
2020/12/03 10:10:52;;;;;;;79.40;26.93;;;;;;;;;;5022959;28;20284;-77
2020/12/03 10:14:13;;;;;;;73.40;23.73;;;;;;;;;;5057658;28;20242;-77
2020/12/03 10:17:19;;;;;;;79.03;25.00;;;;;;;;;;5050313;28;20256;-77
2020/12/03 10:20:23;;;;;;;74.43;25.97;;;;;;;;;;5051396;28;20580;-77
2020/12/03 10:23:45;;;;;;;78.67;25.70;;;;;;;;;;5059984;28;20226;-77
2020/12/03 10:26:51;;;;;;;74.90;26.10;;;;;;;;;;5054355;28;20207;-77
2020/12/03 10:29:59;;;;;;;79.33;25.20;;;;;;;;;;5052153;28;20303;-76
2020/12/03 10:33:05;;;;;;;75.67;26.93;;;;;;;;;;5051549;28;20605;-77
2020/12/03 10:36:12;;;;;;;77.57;24.33;;;;;;;;;;5051426;28;20234;-77
2020/12/03 10:39:19;;;;;;;77.73;25.87;;;;;;;;;;5058442;28;20753;-77
2020/12/03 10:42:27;;;;;;;77.67;25.37;;;;;;;;;;5051441;28;20781;-77
2020/12/03 10:45:34;;;;;;;78.67;24.77;;;;;;;;;;5051828;28;20269;-76
2020/12/03 10:48:41;;;;;;;82.37;26.07;;;;;;;;;;5051530;28;20207;-76
2020/12/03 10:51:46;;;;;;;78.77;26.37;;;;;;;;;;5059920;28;20214;-77
2020/12/03 10:54:51;;;;;;;77.87;26.10;;;;;;;;;;5040105;28;20257;-78
2020/12/03 10:58:00;;;;;;;81.20;25.43;;;;;;;;;;5052494;28;20322;-77
2020/12/03 11:01:09;;;;;;;66.83;24.50;;;;;;;;;;5032918;28;20360;-77
2020/12/03 11:04:14;;;;;;;81.97;28.47;;;;;;;;;;5045513;28;20349;-78
2020/12/03 11:07:20;;;;;;;66.37;23.93;;;;;;;;;;5050758;28;20214;-77
2020/12/03 11:10:27;;;;;;;75.03;23.73;;;;;;;;;;5031648;28;20219;-78
2020/12/03 11:13:32;;;;;;;69.30;23.10;;;;;;;;;;5032477;28;20258;-77
2020/12/03 11:16:39;;;;;;;68.23;22.07;;;;;;;;;;5046911;28;20749;-76
2020/12/03 11:19:45;;;;;;;76.73;24.60;;;;;;;;;;5051567;28;20218;-77
2020/12/03 11:23:02;;;;;;;73.10;24.97;;;;;;;;;;5064492;28;20721;-77
2020/12/03 11:26:08;;;;;;;71.13;23.33;;;;;;;;;;5055830;28;20206;-77
2020/12/03 11:29:13;;;;;;;65.33;22.50;;;;;;;;;;5068380;28;20210;-77
2020/12/03 11:32:22;;;;;;;58.77;21.53;;;;;;;;;;5071182;28;20678;-77
2020/12/03 11:35:28;;;;;;;66.63;21.33;;;;;;;;;;5055783;28;20301;-77
2020/12/03 11:38:35;;;;;;;62.13;20.53;;;;;;;;;;5057306;28;20241;-78
2020/12/03 11:41:51;;;;;;;58.67;19.40;;;;;;;;;;5058507;28;20240;-78
2020/12/03 11:45:38;;;;;;;64.30;22.30;;;;;;;;;;5074866;28;20206;-77
2020/12/03 11:48:43;;;;;;;63.07;21.10;;;;;;;;;;5054547;28;20298;-78
2020/12/03 11:51:48;;;;;;;63.20;21.00;;;;;;;;;;5062858;28;20230;-80
2020/12/03 11:54:53;;;;;;;61.27;20.43;;;;;;;;;;5046914;28;20580;-77
2020/12/03 11:58:05;;;;;;;61.50;20.80;;;;;;;;;;5071213;28;20255;-77
2020/12/03 12:01:11;;;;;;;55.50;19.63;;;;;;;;;;5074887;28;20283;-77
2020/12/03 12:04:17;;;;;;;59.00;20.37;;;;;;;;;;5076397;28;20253;-77
2020/12/03 12:07:30;;;;;;;65.50;21.00;;;;;;;;;;5086991;28;20244;-77
2020/12/03 12:10:41;;;;;;;59.13;20.87;;;;;;;;;;5072922;28;20238;-78
2020/12/03 12:13:48;;;;;;;55.33;19.33;;;;;;;;;;5068813;28;20246;-77
2020/12/03 12:16:53;;;;;;;62.40;20.80;;;;;;;;;;5056602;28;20586;-77
2020/12/03 12:20:01;;;;;;;52.07;19.43;;;;;;;;;;5057693;28;20567;-77
2020/12/03 12:23:06;;;;;;;56.13;20.17;;;;;;;;;;5055005;28;20230;-78
2020/12/03 12:26:11;;;;;;;53.43;19.17;;;;;;;;;;5051346;28;20214;-78
2020/12/03 12:29:29;;;;;;;54.73;20.20;;;;;;;;;;5057446;28;20232;-78
2020/12/03 12:32:34;;;;;;;54.97;19.83;;;;;;;;;;5058638;28;20223;-78
2020/12/03 12:35:39;;;;;;;61.17;21.50;;;;;;;;;;5062560;28;20202;-78
2020/12/03 12:38:48;;;;;;;61.93;21.50;;;;;;;;;;5038539;28;20207;-78
2020/12/03 12:41:59;;;;;;;60.77;20.83;;;;;;;;;;5065144;28;20187;-78
2020/12/03 12:45:05;;;;;;;53.10;20.43;;;;;;;;;;5060346;28;20220;-78
2020/12/03 12:48:10;;;;;;;60.83;20.43;;;;;;;;;;5053189;28;20207;-78
2020/12/03 12:51:15;;;;;;;58.93;20.47;;;;;;;;;;5055196;28;20242;-77
2020/12/03 12:54:21;;;;;;;52.67;18.77;;;;;;;;;;5055727;28;20210;-77
2020/12/03 12:57:26;;;;;;;58.23;21.10;;;;;;;;;;5055680;28;20242;-77
2020/12/03 13:00:32;;;;;;;62.10;21.23;;;;;;;;;;5054980;28;20337;-77
2020/12/03 13:03:36;;;;;;;64.17;21.00;;;;;;;;;;5055551;28;20264;-77
2020/12/03 13:06:42;;;;;;;64.83;21.87;;;;;;;;;;5055844;28;20350;-78
2020/12/03 13:09:47;;;;;;;59.83;21.63;;;;;;;;;;5056578;28;20271;-77
2020/12/03 13:12:54;;;;;;;65.87;23.23;;;;;;;;;;5060740;28;20242;-77
2020/12/03 13:16:00;;;;;;;63.27;21.53;;;;;;;;;;5056745;28;20243;-77
2020/12/03 13:19:05;;;;;;;69.73;22.50;;;;;;;;;;5055378;28;20226;-77
2020/12/03 13:22:10;;;;;;;61.40;22.63;;;;;;;;;;5055113;28;20222;-77
2020/12/03 13:25:15;;;;;;;64.17;21.70;;;;;;;;;;5054902;28;20245;-78
2020/12/03 13:28:19;;;;;;;66.70;22.87;;;;;;;;;;5054006;28;20337;-77
2020/12/03 13:31:25;;;;;;;63.80;21.77;;;;;;;;;;5057825;28;20311;-79
2020/12/03 13:34:31;;;;;;;66.80;23.00;;;;;;;;;;5060691;28;20210;-78
2020/12/03 13:37:35;;;;;;;63.70;22.47;;;;;;;;;;5058530;28;20701;-77
2020/12/03 13:40:43;;;;;;;67.77;21.27;;;;;;;;;;5061872;28;20225;-78
2020/12/03 13:43:48;;;;;;;60.87;21.40;;;;;;;;;;5053851;28;20344;-78
2020/12/03 13:46:54;;;;;;;69.97;22.03;;;;;;;;;;5040507;28;20211;-79
2020/12/03 13:49:59;;;;;;;84.10;24.80;;;;;;;;;;5042501;28;20302;-78
2020/12/03 13:53:03;;;;;;;106.77;30.23;;;;;;;;;;5064903;28;20239;-79
2020/12/03 13:56:08;;;;;;;72.03;25.40;;;;;;;;;;5063678;28;20346;-77
2020/12/03 13:59:13;;;;;;;69.30;22.63;;;;;;;;;;5064756;28;20247;-78
2020/12/03 14:02:26;;;;;;;68.50;23.90;;;;;;;;;;5054969;28;20203;-78
2020/12/03 14:05:31;;;;;;;69.23;23.10;;;;;;;;;;5050211;28;20200;-78
2020/12/03 14:08:36;;;;;;;66.97;23.43;;;;;;;;;;5039280;28;20200;-77
2020/12/03 14:11:42;;;;;;;71.70;26.10;;;;;;;;;;5037834;28;20246;-77
2020/12/03 14:14:47;;;;;;;64.93;24.13;;;;;;;;;;5056258;28;20381;-77
2020/12/03 14:17:53;;;;;;;69.87;24.40;;;;;;;;;;5052329;28;20214;-78
2020/12/03 14:20:57;;;;;;;63.83;22.57;;;;;;;;;;5034789;28;20219;-78
2020/12/03 14:24:02;;;;;;;81.27;26.30;;;;;;;;;;5034561;28;20228;-78
2020/12/03 14:27:07;;;;;;;65.97;23.47;;;;;;;;;;5033790;28;20737;-78
2020/12/03 14:30:11;;;;;;;66.93;22.30;;;;;;;;;;5037232;28;20208;-78
2020/12/03 14:33:17;;;;;;;72.60;23.07;;;;;;;;;;5036801;28;20601;-78
2020/12/03 14:36:22;;;;;;;67.03;22.70;;;;;;;;;;5034932;28;20215;-78
2020/12/03 14:39:26;;;;;;;85.03;26.70;;;;;;;;;;5033806;28;20238;-79
2020/12/03 14:42:31;;;;;;;77.60;24.43;;;;;;;;;;5062361;28;20246;-77
2020/12/03 14:45:36;;;;;;;90.90;31.37;;;;;;;;;;5054951;28;20226;-78
2020/12/03 14:48:42;;;;;;;78.77;28.77;;;;;;;;;;5063361;28;20202;-79
2020/12/03 14:51:54;;;;;;;76.37;27.97;;;;;;;;;;5073128;28;20253;-78
2020/12/03 14:54:58;;;;;;;70.73;25.07;;;;;;;;;;5054365;28;20291;-78
2020/12/03 14:58:03;;;;;;;66.67;22.70;;;;;;;;;;5049697;28;20239;-78
2020/12/03 15:01:08;;;;;;;67.70;22.53;;;;;;;;;;5057800;28;20203;-78
2020/12/03 15:04:14;;;;;;;72.10;23.10;;;;;;;;;;5055593;28;20230;-78
2020/12/03 15:07:19;;;;;;;69.53;23.20;;;;;;;;;;5062761;28;21041;-78
2020/12/03 15:10:29;;;;;;;69.73;23.07;;;;;;;;;;5051743;28;20290;-78
2020/12/03 15:13:34;;;;;;;81.37;25.83;;;;;;;;;;5056336;28;20231;-79
2020/12/03 15:16:39;;;;;;;84.23;26.73;;;;;;;;;;5074899;28;20228;-78
2020/12/03 15:19:45;;;;;;;66.67;23.03;;;;;;;;;;5051624;28;20206;-78
2020/12/03 15:22:50;;;;;;;75.93;24.63;;;;;;;;;;5059322;28;20349;-78
2020/12/03 15:25:55;;;;;;;83.17;26.37;;;;;;;;;;5059346;28;20215;-78
2020/12/03 15:28:59;;;;;;;72.87;24.63;;;;;;;;;;5061759;28;20218;-78
2020/12/03 15:32:04;;;;;;;111.07;33.33;;;;;;;;;;5062146;28;20237;-78
2020/12/03 15:35:10;;;;;;;100.03;30.27;;;;;;;;;;5063499;28;20226;-78
2020/12/03 15:38:15;;;;;;;87.53;27.10;;;;;;;;;;5056778;28;20579;-78
2020/12/03 15:41:20;;;;;;;85.20;27.77;;;;;;;;;;5060956;28;20246;-78
2020/12/03 15:44:25;;;;;;;78.17;25.10;;;;;;;;;;5061419;28;20678;-78
2020/12/03 15:47:29;;;;;;;87.53;26.63;;;;;;;;;;5054827;28;20218;-78
2020/12/03 15:50:35;;;;;;;147.13;42.53;;;;;;;;;;5055880;28;20199;-78
2020/12/03 15:53:40;;;;;;;128.30;37.23;;;;;;;;;;5048687;28;20231;-78
2020/12/03 15:56:47;;;;;;;182.00;48.80;;;;;;;;;;5041405;28;20218;-78
2020/12/03 15:59:52;;;;;;;142.70;39.87;;;;;;;;;;5043161;28;20238;-78
2020/12/03 16:02:57;;;;;;;89.10;30.43;;;;;;;;;;5064704;28;20242;-79
2020/12/03 16:06:07;;;;;;;89.17;30.03;;;;;;;;;;5075734;28;20262;-78
2020/12/03 16:09:13;;;;;;;80.47;26.70;;;;;;;;;;5073461;28;20207;-79
2020/12/03 16:12:34;;;;;;;72.07;24.97;;;;;;;;;;5065417;28;20242;-77
2020/12/03 16:15:39;;;;;;;77.10;25.70;;;;;;;;;;5045550;28;20215;-78
2020/12/03 16:18:47;;;;;;;77.00;26.27;;;;;;;;;;5049251;28;20219;-78
2020/12/03 16:21:52;;;;;;;79.33;27.27;;;;;;;;;;5054785;28;20187;-78
2020/12/03 16:24:57;;;;;;;82.63;26.37;;;;;;;;;;5059592;28;20249;-80
2020/12/03 16:28:01;;;;;;;80.03;27.37;;;;;;;;;;5057892;28;20352;-76
2020/12/03 16:31:07;;;;;;;80.17;27.50;;;;;;;;;;5045125;28;20679;-77
2020/12/03 16:34:12;;;;;;;72.10;26.43;;;;;;;;;;5057699;28;20219;-77
2020/12/03 16:37:18;;;;;;;79.53;26.97;;;;;;;;;;5052161;28;20211;-77
2020/12/03 16:40:23;;;;;;;83.80;25.60;;;;;;;;;;5051668;28;20235;-77
2020/12/03 16:43:27;;;;;;;82.30;25.13;;;;;;;;;;5044924;28;20222;-77
2020/12/03 16:46:32;;;;;;;77.03;25.80;;;;;;;;;;5047035;28;20213;-78
2020/12/03 16:49:37;;;;;;;77.63;25.57;;;;;;;;;;5045303;28;20214;-78
2020/12/03 16:52:43;;;;;;;84.30;24.87;;;;;;;;;;5054822;28;20742;-78
2020/12/03 16:55:48;;;;;;;85.47;25.23;;;;;;;;;;5038968;28;20254;-77
2020/12/03 16:58:53;;;;;;;77.83;24.93;;;;;;;;;;5049172;28;20234;-77
2020/12/03 17:02:00;;;;;;;77.23;23.23;;;;;;;;;;5048750;28;20211;-78
2020/12/03 17:05:04;;;;;;;84.73;25.00;;;;;;;;;;5059302;28;20237;-79
2020/12/03 17:08:10;;;;;;;80.93;26.23;;;;;;;;;;5064706;28;20222;-78
2020/12/03 17:11:15;;;;;;;79.70;26.07;;;;;;;;;;5046061;28;20215;-79
2020/12/03 17:14:19;;;;;;;88.83;29.33;;;;;;;;;;5056314;28;20238;-79
2020/12/03 17:17:24;;;;;;;78.30;25.97;;;;;;;;;;5062503;28;20807;-78
2020/12/03 17:20:29;;;;;;;85.70;26.50;;;;;;;;;;5067072;28;20219;-79
2020/12/03 17:23:35;;;;;;;83.83;27.07;;;;;;;;;;5072894;28;20226;-79
2020/12/03 17:26:40;;;;;;;96.43;28.57;;;;;;;;;;5061751;28;20584;-79
2020/12/03 17:29:46;;;;;;;96.40;30.70;;;;;;;;;;5058778;28;20207;-79
2020/12/03 17:32:51;;;;;;;106.77;33.47;;;;;;;;;;5059588;28;20738;-78
2020/12/03 17:35:56;;;;;;;88.33;28.30;;;;;;;;;;5058786;28;20203;-80
2020/12/03 17:39:02;;;;;;;80.93;27.00;;;;;;;;;;5059197;28;20210;-79
2020/12/03 17:42:08;;;;;;;93.27;29.43;;;;;;;;;;5063944;28;20206;-79
2020/12/03 17:45:12;;;;;;;80.50;26.60;;;;;;;;;;5057859;28;20215;-79
2020/12/03 17:48:17;;;;;;;80.00;27.20;;;;;;;;;;5073475;28;20622;-79
2020/12/03 17:51:22;;;;;;;84.40;25.00;;;;;;;;;;5058248;28;22003;-79
2020/12/03 17:54:28;;;;;;;84.30;27.27;;;;;;;;;;5062663;28;20234;-79
2020/12/03 17:57:33;;;;;;;80.77;26.13;;;;;;;;;;5058799;28;20261;-79
2020/12/03 18:00:39;;;;;;;90.80;26.60;;;;;;;;;;5056061;28;20256;-78
2020/12/03 18:03:46;;;;;;;80.93;24.80;;;;;;;;;;5067221;28;20276;-78
2020/12/03 18:06:51;;;;;;;102.57;30.20;;;;;;;;;;5057783;28;20231;-78
2020/12/03 18:09:57;;;;;;;87.73;27.60;;;;;;;;;;5055658;28;20206;-79